الصفحة الرئيسية
METAR-TAF:

METAR-TAF

مطار :

ساتو ماري, رومانيا

دائرة عرض: 47-48N, خط طول: 022-53E, ارتفاع: 123 متر

مراقبة الطقس الحالي

تاريخ ووقت الإصدار 33 دقيقة قبل الساعة 00:30UTC
رياح هادئة
درجة الحرارة 22°درجة مئوية
الرطوبة 78%
ضغط 1010 hPa
الرؤية 10 كم أو أكثر

METAR: LRSM 140030Z AUTO 00000KT 9999 NCD 22/18 Q1010

زمن: 04:03 (01:03 UTC)

توقعات

تاريخ ووقت الإصدار 11ساعات و 3 دقيقة قبل الساعة 14:00UTC
التوقعات صالحة من13 الساعة 15 UTC إلى 14 الساعة 00 UTC
ريح 4 عقدةمن اتجاهات متغيرة
الرؤية 10 كم أو أكثر
الغيوم لا تقل 1500 م ولا وجود لمزنة ركامية السحاب الأسود
مؤقت
من 13 الساعة 15 UTC إلى 13 الساعة 18 UTC
ريح 10 عقدة من الجنوب الغربي
غيوم قليلة على ارتفاع 4500 قدم, مزنة ركامية.

TAF: LRSM 131400Z 1315/1400 VRB04KT CAVOK TEMPO 1315/1318 23010KT FEW045CB

أرصاد الطقس والتوقعات من أكثر من 4000 مطار (تقارير الطقس للمطار METAR والتنبؤ بالطقس بالمطارTAF).

المحطات المتاحة هي النقط الصفراء والحمراء على الخريطة.

حرك المؤشر فوق النقطة لمعرفة اسم المحطة.

ثم انقر لمعرفة أرصاد وتوقعات الطقس.

لتغيير الخارطة: اضغط على الأزرار الخضراء مع رمز الصليب الأسود للتكبير. على الزر الأخضر مع شرطة للتصغير، أو على الأسهم الخضراء للخرائط المجاورة.


METAR-TAF: